Time,TemperatureF,DewpointF,PressureIn,WindDirection,WindDirectionDegrees,WindSpeedMPH,WindSpeedGustMPH,Humidity,HourlyPrecipIn,Conditions,Clouds,dailyrainin,SolarRadiationWatts/m^2,SoftwareType,DateUTC
2013-03-29 00:02:00,52.2,49.0,30.07,North,5,1.0,2.0,88,0.00,,,0.00,0,weatherlink.com 1.10,2013-03-29 07:02:00,
2013-03-29 00:17:00,51.6,48.0,30.06,North,5,0.0,2.0,87,0.00,,,0.00,0,weatherlink.com 1.10,2013-03-29 07:17:00,
2013-03-29 00:32:00,51.3,48.0,30.06,North,5,1.0,2.0,88,0.00,,,0.00,0,weatherlink.com 1.10,2013-03-29 07:32:00,
2013-03-29 00:47:00,50.7,47.0,30.06,North,5,1.0,3.0,88,0.00,,,0.00,0,weatherlink.com 1.10,2013-03-29 07:47:00,
2013-03-29 01:02:00,50.7,48.0,30.06,North,5,1.0,3.0,90,0.00,,,0.00,0,weatherlink.com 1.10,2013-03-29 08:02:00,
2013-03-29 01:17:00,51.5,49.0,30.06,North,360,3.0,5.0,91,0.00,,,0.00,0,weatherlink.com 1.10,2013-03-29 08:17:00,
2013-03-29 01:32:00,51.7,49.0,30.07,North,355,2.0,5.0,90,0.00,,,0.00,0,weatherlink.com 1.10,2013-03-29 08:32:00,
2013-03-29 01:47:00,51.4,49.0,30.07,NNW,348,3.0,4.0,90,0.00,,,0.00,0,weatherlink.com 1.10,2013-03-29 08:47:00,
2013-03-29 02:02:00,51.4,49.0,30.06,North,360,1.0,4.0,90,0.00,,,0.00,0,weatherlink.com 1.10,2013-03-29 09:02:00,
2013-03-29 02:17:00,51.0,48.0,30.07,North,349,1.0,4.0,90,0.00,,,0.00,0,weatherlink.com 1.10,2013-03-29 09:17:00,
2013-03-29 02:32:00,50.9,48.0,30.07,North,355,2.0,5.0,91,0.00,,,0.00,0,weatherlink.com 1.10,2013-03-29 09:32:00,
2013-03-29 02:47:00,51.0,49.0,30.07,North,350,1.0,6.0,92,0.00,,,0.00,0,weatherlink.com 1.10,2013-03-29 09:47:00,
2013-03-29 03:02:00,50.6,48.0,30.07,NNW,333,3.0,4.0,91,0.00,,,0.00,0,weatherlink.com 1.10,2013-03-29 10:02:00,
2013-03-29 03:17:00,50.2,48.0,30.07,North,350,3.0,5.0,91,0.00,,,0.00,0,weatherlink.com 1.10,2013-03-29 10:17:00,
2013-03-29 03:32:00,49.8,47.0,30.06,North,360,1.0,5.0,91,0.00,,,0.00,0,weatherlink.com 1.10,2013-03-29 10:32:00,
2013-03-29 03:47:00,49.5,47.0,30.06,NNE,12,3.0,5.0,92,0.00,,,0.00,0,weatherlink.com 1.10,2013-03-29 10:47:00,
2013-03-29 04:02:00,49.4,47.0,30.06,NNE,19,1.0,5.0,92,0.00,,,0.00,0,weatherlink.com 1.10,2013-03-29 11:02:00,
2013-03-29 04:17:00,49.2,47.0,30.06,NNE,17,2.0,3.0,92,0.00,,,0.00,0,weatherlink.com 1.10,2013-03-29 11:17:00,
2013-03-29 04:32:00,49.1,47.0,30.06,North,349,1.0,6.0,92,0.00,,,0.00,0,weatherlink.com 1.10,2013-03-29 11:32:00,
2013-03-29 04:47:00,48.9,47.0,30.07,North,11,0.0,3.0,92,0.00,,,0.00,0,weatherlink.com 1.10,2013-03-29 11:47:00,
2013-03-29 05:02:00,48.5,46.0,30.07,North,5,2.0,3.0,92,0.00,,,0.00,0,weatherlink.com 1.10,2013-03-29 12:02:00,
2013-03-29 05:17:00,48.9,47.0,30.07,North,5,1.0,3.0,92,0.00,,,0.00,0,weatherlink.com 1.10,2013-03-29 12:17:00,
2013-03-29 05:32:00,48.3,46.0,30.07,North,350,2.0,5.0,92,0.00,,,0.00,0,weatherlink.com 1.10,2013-03-29 12:32:00,
2013-03-29 05:47:00,48.9,47.0,30.07,North,355,2.0,6.0,93,0.00,,,0.00,0,weatherlink.com 1.10,2013-03-29 12:47:00,
2013-03-29 06:02:00,48.8,47.0,30.07,NNW,345,1.0,5.0,93,0.00,,,0.00,0,weatherlink.com 1.10,2013-03-29 13:02:00,
2013-03-29 06:17:00,48.7,47.0,30.07,North,355,3.0,6.0,93,0.00,,,0.00,0,weatherlink.com 1.10,2013-03-29 13:17:00,
2013-03-29 06:32:00,48.6,47.0,30.07,North,351,2.0,6.0,93,0.00,,,0.00,0,weatherlink.com 1.10,2013-03-29 13:32:00,
2013-03-29 06:47:00,48.5,47.0,30.08,North,355,4.0,6.0,93,0.00,,,0.00,0,weatherlink.com 1.10,2013-03-29 13:47:00,
2013-03-29 07:02:00,48.3,46.0,30.08,NNW,344,1.0,3.0,92,0.00,,,0.00,9,weatherlink.com 1.10,2013-03-29 14:02:00,
2013-03-29 07:17:00,48.0,46.0,30.08,North,5,2.0,6.0,93,0.00,,,0.00,21,weatherlink.com 1.10,2013-03-29 14:17:00,
2013-03-29 07:32:00,48.8,47.0,30.08,North,11,5.0,7.0,93,0.00,,,0.00,53,weatherlink.com 1.10,2013-03-29 14:32:00,
2013-03-29 07:47:00,49.9,48.0,30.08,NNE,15,4.0,8.0,92,0.00,,,0.00,105,weatherlink.com 1.10,2013-03-29 14:47:00,
2013-03-29 08:03:00,51.0,49.0,30.08,NNE,18,8.0,8.0,91,0.00,,,0.00,141,weatherlink.com 1.10,2013-03-29 15:03:00,
2013-03-29 08:18:00,52.3,49.0,30.09,NNE,21,2.0,9.0,89,0.00,,,0.00,181,weatherlink.com 1.10,2013-03-29 15:18:00,
2013-03-29 08:48:00,54.9,51.0,30.09,NNE,30,2.0,8.0,86,0.00,,,0.00,288,weatherlink.com 1.10,2013-03-29 15:48:00,
2013-03-29 09:03:00,56.3,52.0,30.09,NNE,17,4.0,8.0,84,0.00,,,0.00,352,weatherlink.com 1.10,2013-03-29 16:03:00,
2013-03-29 09:18:00,57.5,52.0,30.09,ENE,58,5.0,10.0,81,0.00,,,0.00,373,weatherlink.com 1.10,2013-03-29 16:18:00,
2013-03-29 09:33:00,58.8,52.0,30.09,NNE,15,7.0,10.0,77,0.00,,,0.00,420,weatherlink.com 1.10,2013-03-29 16:33:00,
2013-03-29 09:48:00,59.9,52.0,30.09,NNE,22,4.0,10.0,75,0.00,,,0.00,476,weatherlink.com 1.10,2013-03-29 16:48:00,
2013-03-29 10:03:00,61.1,52.0,30.09,NNE,28,5.0,12.0,72,0.00,,,0.00,506,weatherlink.com 1.10,2013-03-29 17:03:00,
2013-03-29 10:18:00,62.2,52.0,30.09,NE,46,6.0,9.0,69,0.00,,,0.00,506,weatherlink.com 1.10,2013-03-29 17:18:00,
2013-03-29 10:33:00,63.1,52.0,30.09,North,5,4.0,11.0,68,0.00,,,0.00,587,weatherlink.com 1.10,2013-03-29 17:33:00,
2013-03-29 10:48:00,64.6,52.0,30.09,NNE,15,4.0,8.0,65,0.00,,,0.00,621,weatherlink.com 1.10,2013-03-29 17:48:00,
2013-03-29 11:03:00,65.7,53.0,30.09,NE,42,3.0,9.0,63,0.00,,,0.00,664,weatherlink.com 1.10,2013-03-29 18:03:00,
2013-03-29 11:18:00,67.0,53.0,30.09,North,11,1.0,9.0,62,0.00,,,0.00,666,weatherlink.com 1.10,2013-03-29 18:18:00,
2013-03-29 11:33:00,68.1,54.0,30.09,ENE,59,4.0,9.0,61,0.00,,,0.00,691,weatherlink.com 1.10,2013-03-29 18:33:00,
2013-03-29 11:48:00,68.3,54.0,30.08,NE,54,3.0,11.0,61,0.00,,,0.00,707,weatherlink.com 1.10,2013-03-29 18:48:00,
2013-03-29 12:03:00,69.2,53.0,30.08,NE,55,7.0,10.0,57,0.00,,,0.00,765,weatherlink.com 1.10,2013-03-29 19:03:00,
2013-03-29 12:19:00,70.2,53.0,30.08,North,360,4.0,9.0,55,0.00,,,0.00,766,weatherlink.com 1.10,2013-03-29 19:19:00,
2013-03-29 12:34:00,71.1,53.0,30.07,East,80,7.0,10.0,53,0.00,,,0.00,777,weatherlink.com 1.10,2013-03-29 19:34:00,
2013-03-29 12:49:00,71.9,53.0,30.06,ENE,73,5.0,9.0,51,0.00,,,0.00,800,weatherlink.com 1.10,2013-03-29 19:49:00,
2013-03-29 13:04:00,72.3,55.0,30.06,NE,46,6.0,9.0,54,0.00,,,0.00,780,weatherlink.com 1.10,2013-03-29 20:04:00,
2013-03-29 13:19:00,72.3,57.0,30.06,NE,36,5.0,8.0,58,0.00,,,0.00,759,weatherlink.com 1.10,2013-03-29 20:19:00,
2013-03-29 13:34:00,72.9,56.0,30.05,NNE,19,2.0,7.0,55,0.00,,,0.00,800,weatherlink.com 1.10,2013-03-29 20:34:00,
2013-03-29 13:49:00,73.6,56.0,30.05,NE,48,1.0,7.0,54,0.00,,,0.00,765,weatherlink.com 1.10,2013-03-29 20:49:00,
2013-03-29 14:04:00,73.9,58.0,30.04,NNW,347,8.0,10.0,57,0.00,,,0.00,766,weatherlink.com 1.10,2013-03-29 21:04:00,
2013-03-29 14:19:00,74.3,57.0,30.03,ENE,61,7.0,7.0,55,0.00,,,0.00,777,weatherlink.com 1.10,2013-03-29 21:19:00,
2013-03-29 14:34:00,75.2,56.0,30.03,NNE,13,4.0,8.0,52,0.00,,,0.00,715,weatherlink.com 1.10,2013-03-29 21:34:00,
2013-03-29 14:49:00,75.6,54.0,30.02,NW,308,5.0,6.0,48,0.00,,,0.00,731,weatherlink.com 1.10,2013-03-29 21:49:00,
2013-03-29 15:04:00,75.9,55.0,30.02,North,9,0.0,5.0,49,0.00,,,0.00,717,weatherlink.com 1.10,2013-03-29 22:04:00,
2013-03-29 15:19:00,76.5,54.0,30.01,NNW,348,4.0,10.0,45,0.00,,,0.00,642,weatherlink.com 1.10,2013-03-29 22:19:00,
2013-03-29 15:34:00,75.6,55.0,30.01,North,360,3.0,6.0,49,0.00,,,0.00,643,weatherlink.com 1.10,2013-03-29 22:34:00,
2013-03-29 15:49:00,77.0,55.0,30.00,NNE,17,2.0,8.0,46,0.00,,,0.00,608,weatherlink.com 1.10,2013-03-29 22:49:00,
2013-03-29 16:04:00,77.3,52.0,29.99,WNW,300,1.0,6.0,42,0.00,,,0.00,568,weatherlink.com 1.10,2013-03-29 23:04:00,
2013-03-29 16:19:00,78.5,53.0,30.00,West,274,1.0,5.0,42,0.00,,,0.00,533,weatherlink.com 1.10,2013-03-29 23:19:00,
2013-03-29 16:34:00,78.4,56.0,29.99,NW,311,2.0,7.0,46,0.00,,,0.00,360,weatherlink.com 1.10,2013-03-29 23:34:00,
2013-03-29 16:49:00,78.3,52.0,29.99,NW,310,3.0,5.0,40,0.00,,,0.00,457,weatherlink.com 1.10,2013-03-29 23:49:00,
2013-03-29 17:04:00,78.2,53.0,29.98,North,11,1.0,6.0,41,0.00,,,0.00,318,weatherlink.com 1.10,2013-03-30 00:04:00,
2013-03-29 17:19:00,77.6,53.0,29.98,WNW,299,0.0,6.0,43,0.00,,,0.00,185,weatherlink.com 1.10,2013-03-30 00:19:00,
2013-03-29 17:34:00,76.5,54.0,29.98,NW,313,4.0,8.0,46,0.00,,,0.00,141,weatherlink.com 1.10,2013-03-30 00:34:00,
2013-03-29 17:49:00,75.3,54.0,29.99,NNW,336,2.0,10.0,48,0.00,,,0.00,192,weatherlink.com 1.10,2013-03-30 00:49:00,
2013-03-29 18:04:00,75.2,54.0,29.98,NW,314,4.0,8.0,47,0.00,,,0.00,121,weatherlink.com 1.10,2013-03-30 01:04:00,
2013-03-29 18:19:00,74.8,53.0,29.98,NW,326,2.0,7.0,47,0.00,,,0.00,118,weatherlink.com 1.10,2013-03-30 01:19:00,
2013-03-29 18:34:00,74.8,53.0,29.98,NW,324,5.0,8.0,47,0.00,,,0.00,74,weatherlink.com 1.10,2013-03-30 01:34:00,
2013-03-29 18:49:00,74.1,53.0,29.98,NNW,341,2.0,4.0,48,0.00,,,0.00,65,weatherlink.com 1.10,2013-03-30 01:49:00,
2013-03-29 19:04:00,73.7,54.0,29.98,NNW,334,1.0,4.0,51,0.00,,,0.00,30,weatherlink.com 1.10,2013-03-30 02:04:00,
2013-03-29 19:19:00,72.6,54.0,29.98,NNW,334,0.0,0.0,52,0.00,,,0.00,7,weatherlink.com 1.10,2013-03-30 02:19:00,
2013-03-29 19:34:00,71.1,56.0,29.98,NNW,334,0.0,0.0,59,0.00,,,0.00,0,weatherlink.com 1.10,2013-03-30 02:34:00,
2013-03-29 19:49:00,69.1,54.0,29.98,NNW,334,0.0,0.0,60,0.00,,,0.00,0,weatherlink.com 1.10,2013-03-30 02:49:00,
2013-03-29 20:04:00,67.8,53.0,29.98,NNW,334,2.0,3.0,59,0.00,,,0.00,0,weatherlink.com 1.10,2013-03-30 03:04:00,
2013-03-29 20:19:00,67.4,53.0,29.98,NNW,333,0.0,2.0,60,0.00,,,0.00,0,weatherlink.com 1.10,2013-03-30 03:19:00,
2013-03-29 20:34:00,66.4,54.0,29.99,NNW,333,0.0,0.0,65,0.00,,,0.00,0,weatherlink.com 1.10,2013-03-30 03:34:00,
2013-03-29 20:50:00,64.8,53.0,30.00,WNW,299,3.0,5.0,66,0.00,,,0.00,0,weatherlink.com 1.10,2013-03-30 03:50:00,
2013-03-29 21:05:00,64.1,53.0,30.00,NW,304,2.0,4.0,68,0.00,,,0.00,0,weatherlink.com 1.10,2013-03-30 04:05:00,
2013-03-29 21:20:00,63.2,53.0,30.00,WNW,291,1.0,6.0,70,0.00,,,0.00,0,weatherlink.com 1.10,2013-03-30 04:20:00,
2013-03-29 21:35:00,63.1,52.0,30.01,NW,309,3.0,7.0,68,0.00,,,0.00,0,weatherlink.com 1.10,2013-03-30 04:35:00,
2013-03-29 21:50:00,63.1,52.0,30.01,NNW,327,3.0,7.0,67,0.00,,,0.00,0,weatherlink.com 1.10,2013-03-30 04:50:00,
2013-03-29 22:05:00,62.5,52.0,30.01,WNW,291,0.0,4.0,68,0.00,,,0.00,0,weatherlink.com 1.10,2013-03-30 05:05:00,
2013-03-29 22:20:00,61.7,52.0,30.01,WNW,297,0.0,6.0,70,0.00,,,0.00,0,weatherlink.com 1.10,2013-03-30 05:20:00,
2013-03-29 22:35:00,60.7,52.0,30.01,WNW,300,0.0,4.0,72,0.00,,,0.00,0,weatherlink.com 1.10,2013-03-30 05:35:00,
2013-03-29 22:50:00,60.3,52.0,30.02,NW,304,1.0,5.0,73,0.00,,,0.00,0,weatherlink.com 1.10,2013-03-30 05:50:00,
2013-03-29 23:05:00,59.4,51.0,30.01,NW,305,0.0,3.0,75,0.00,,,0.00,0,weatherlink.com 1.10,2013-03-30 06:05:00,
2013-03-29 23:20:00,58.6,51.0,30.01,NW,304,2.0,2.0,77,0.00,,,0.00,0,weatherlink.com 1.10,2013-03-30 06:20:00,
2013-03-29 23:35:00,57.9,51.0,30.01,NW,305,1.0,3.0,79,0.00,,,0.00,0,weatherlink.com 1.10,2013-03-30 06:35:00,
2013-03-29 23:50:00,57.3,52.0,30.01,NW,305,1.0,3.0,81,0.00,,,0.00,0,weatherlink.com 1.10,2013-03-30 06:50:00,